createdAt,value
2023-02-23T00:01:27.851Z,11.15
2023-02-23T00:03:57.454Z,11.36
2023-02-23T00:06:26.380Z,11.40
2023-02-23T00:08:54.339Z,11.41
2023-02-23T00:11:22.657Z,11.42
2023-02-23T00:13:51.473Z,11.48
2023-02-23T00:16:20.851Z,11.49
2023-02-23T00:18:51.533Z,11.47
2023-02-23T00:21:21.163Z,11.47
2023-02-23T00:23:51.037Z,11.45
2023-02-23T00:26:20.758Z,11.43
2023-02-23T00:28:50.908Z,11.46
2023-02-23T00:31:19.133Z,11.44
2023-02-23T00:33:46.826Z,11.46
2023-02-23T00:36:16.067Z,11.41
2023-02-23T00:38:45.868Z,11.44
2023-02-23T00:41:19.930Z,11.41
2023-02-23T00:43:48.264Z,11.42
2023-02-23T00:46:17.380Z,11.41
2023-02-23T00:48:45.714Z,11.28
2023-02-23T00:51:15.632Z,11.37
2023-02-23T00:53:44.084Z,11.34
2023-02-23T00:56:13.868Z,11.35
2023-02-23T00:58:41.961Z,11.38
2023-02-23T01:01:12.005Z,11.35
2023-02-23T01:03:41.269Z,11.37
2023-02-23T01:06:11.397Z,11.35
2023-02-23T01:08:42.476Z,11.39
2023-02-23T01:11:13.693Z,11.37
2023-02-23T01:13:42.562Z,11.40
2023-02-23T01:16:14.593Z,11.36
2023-02-23T01:18:44.408Z,11.39
2023-02-23T01:21:17.381Z,11.40
2023-02-23T01:23:46.691Z,11.36
2023-02-23T01:26:19.069Z,11.37
2023-02-23T01:28:50.216Z,11.32
2023-02-23T01:31:18.674Z,11.33
2023-02-23T01:33:46.950Z,11.32
2023-02-23T01:36:14.966Z,11.32
2023-02-23T01:38:42.431Z,11.35
2023-02-23T01:41:11.332Z,11.31
2023-02-23T01:43:57.744Z,11.31
2023-02-23T01:46:25.292Z,11.29
2023-02-23T01:48:56.213Z,11.27
2023-02-23T01:51:27.750Z,11.27
2023-02-23T01:54:00.952Z,11.24
2023-02-23T01:56:35.585Z,11.26
2023-02-23T01:59:07.091Z,11.27
2023-02-23T02:01:34.664Z,11.33
2023-02-23T02:04:06.391Z,11.27
2023-02-23T02:06:35.434Z,11.31
2023-02-23T02:09:06.515Z,11.35
2023-02-23T02:11:37.063Z,11.32
2023-02-23T02:14:12.747Z,11.32
2023-02-23T02:17:02.133Z,11.22
2023-02-23T02:20:00.102Z,11.27
2023-02-23T02:22:55.466Z,11.21
2023-02-23T02:25:40.453Z,11.21
2023-02-23T02:28:41.167Z,11.23
2023-02-23T02:31:38.633Z,11.27
2023-02-23T02:34:25.053Z,11.26
2023-02-23T02:37:19.930Z,11.17
2023-02-23T02:40:14.443Z,11.19
2023-02-23T02:42:51.185Z,11.15
2023-02-23T02:45:26.266Z,11.12
2023-02-23T02:48:01.800Z,11.21
2023-02-23T02:50:40.235Z,11.18
2023-02-23T02:53:10.879Z,11.14
2023-02-23T02:55:43.785Z,11.13
2023-02-23T02:58:13.730Z,11.20
2023-02-23T03:01:01.495Z,11.22
2023-02-23T03:03:49.921Z,11.21
2023-02-23T03:06:35.661Z,11.23
2023-02-23T03:09:26.707Z,11.18
2023-02-23T03:12:24.693Z,11.18
2023-02-23T03:15:19.802Z,11.15
2023-02-23T03:18:06.770Z,11.18
2023-02-23T03:21:02.201Z,11.17
2023-02-23T03:23:58.578Z,11.13
2023-02-23T03:26:51.600Z,11.17
2023-02-23T03:29:48.443Z,11.13
2023-02-23T03:32:41.329Z,11.09
2023-02-23T03:35:33.238Z,11.07
2023-02-23T03:38:25.634Z,11.04
2023-02-23T03:41:13.490Z,11.11
2023-02-23T03:44:04.935Z,11.15
2023-02-23T03:46:50.818Z,11.01
2023-02-23T03:49:39.720Z,11.01
2023-02-23T03:52:30.573Z,10.69
2023-02-23T03:55:17.892Z,10.96
2023-02-23T03:58:08.638Z,10.99
2023-02-23T04:00:58.655Z,11.05
2023-02-23T04:03:46.148Z,11.14
2023-02-23T04:06:33.367Z,11.13
2023-02-23T04:09:23.182Z,11.10
2023-02-23T04:12:14.034Z,11.07
2023-02-23T04:14:45.512Z,11.07
2023-02-23T04:17:20.927Z,11.07
2023-02-23T04:19:51.360Z,11.11
2023-02-23T04:22:18.940Z,11.09
2023-02-23T04:24:46.913Z,11.03
2023-02-23T04:27:14.382Z,10.80
2023-02-23T04:29:42.279Z,10.96
2023-02-23T04:32:15.928Z,10.85
2023-02-23T04:34:43.857Z,10.94
2023-02-23T04:37:12.362Z,11.01
2023-02-23T04:39:39.929Z,11.05
2023-02-23T04:42:07.457Z,10.93
2023-02-23T04:44:34.963Z,10.84
2023-02-23T04:47:02.493Z,10.67
2023-02-23T04:49:31.334Z,10.64
2023-02-23T04:51:59.316Z,10.63
2023-02-23T04:54:26.997Z,10.74
2023-02-23T04:56:54.547Z,10.85
2023-02-23T04:59:22.046Z,10.89
2023-02-23T05:01:49.682Z,10.89
2023-02-23T05:04:17.198Z,10.74
2023-02-23T05:06:46.028Z,10.83
2023-02-23T05:09:13.515Z,10.93
2023-02-23T05:11:41.199Z,10.98
2023-02-23T05:14:09.225Z,10.84
2023-02-23T05:16:36.909Z,10.82
2023-02-23T05:19:04.468Z,10.77
2023-02-23T05:21:32.226Z,10.86
2023-02-23T05:24:01.290Z,10.91
2023-02-23T05:26:29.312Z,10.90
2023-02-23T05:28:57.084Z,10.97
2023-02-23T05:31:24.793Z,10.94
2023-02-23T05:33:53.808Z,10.80
2023-02-23T05:36:22.577Z,10.90
2023-02-23T05:38:50.174Z,10.89
2023-02-23T05:41:21.956Z,10.78
2023-02-23T05:43:51.137Z,10.78
2023-02-23T05:46:21.497Z,10.77
2023-02-23T05:48:49.239Z,10.76
2023-02-23T05:51:18.346Z,10.75
2023-02-23T05:53:46.639Z,10.77
2023-02-23T05:56:20.210Z,10.85
2023-02-23T05:58:49.304Z,10.90
2023-02-23T06:01:18.519Z,10.87
2023-02-23T06:03:46.915Z,10.91
2023-02-23T06:06:14.645Z,10.93
2023-02-23T06:08:42.764Z,10.95
2023-02-23T06:11:10.603Z,10.91
2023-02-23T06:13:38.105Z,10.80
2023-02-23T06:16:08.464Z,10.87
2023-02-23T06:18:36.131Z,10.86
2023-02-23T06:21:04.073Z,10.86
2023-02-23T06:23:33.183Z,10.88
2023-02-23T06:26:00.926Z,10.87
2023-02-23T06:28:29.672Z,10.86
2023-02-23T06:30:57.709Z,10.88
2023-02-23T06:33:27.205Z,10.85
2023-02-23T06:35:55.210Z,10.79
2023-02-23T06:38:23.831Z,10.78
2023-02-23T06:40:51.337Z,10.76
2023-02-23T06:43:18.959Z,10.82
2023-02-23T06:45:47.830Z,10.87
2023-02-23T06:48:15.371Z,10.74
2023-02-23T06:50:44.545Z,10.48
2023-02-23T06:53:12.308Z,10.71
2023-02-23T06:55:39.768Z,10.75
2023-02-23T06:58:07.901Z,10.71
2023-02-23T07:00:35.481Z,10.82
2023-02-23T07:03:02.968Z,10.85
2023-02-23T07:05:30.461Z,10.85
2023-02-23T07:07:59.338Z,10.85
2023-02-23T07:10:26.839Z,10.85
2023-02-23T07:12:54.946Z,10.79
2023-02-23T07:15:22.434Z,10.87
2023-02-23T07:17:51.282Z,10.85
2023-02-23T07:20:19.550Z,10.82
2023-02-23T07:22:47.041Z,10.87
2023-02-23T07:25:15.975Z,10.88
2023-02-23T07:27:46.444Z,10.87
2023-02-23T07:30:14.851Z,10.69
2023-02-23T07:32:42.471Z,10.82
2023-02-23T07:35:13.135Z,10.86
2023-02-23T07:37:40.606Z,10.84
2023-02-23T07:40:09.259Z,10.87
2023-02-23T07:42:38.232Z,10.53
2023-02-23T07:45:07.020Z,10.57
2023-02-23T07:47:34.620Z,10.57
2023-02-23T07:50:03.451Z,10.69
2023-02-23T07:52:31.193Z,10.76
2023-02-23T07:54:58.639Z,10.83
2023-02-23T07:57:26.760Z,10.86
2023-02-23T07:59:55.613Z,10.77
2023-02-23T08:02:23.325Z,10.85
2023-02-23T08:04:54.029Z,10.88
2023-02-23T08:07:21.730Z,10.79
2023-02-23T08:09:49.572Z,10.89
2023-02-23T08:12:17.016Z,10.91
2023-02-23T08:14:44.633Z,10.93
2023-02-23T08:17:13.413Z,10.94
2023-02-23T08:19:41.078Z,10.96
2023-02-23T08:22:10.234Z,10.85
2023-02-23T08:24:39.229Z,10.38
2023-02-23T08:27:06.796Z,10.68
2023-02-23T08:29:34.925Z,10.83
2023-02-23T08:32:03.562Z,10.87
2023-02-23T08:34:32.563Z,10.88
2023-02-23T08:37:00.230Z,10.83
2023-02-23T08:39:27.911Z,10.91
2023-02-23T08:41:55.569Z,10.81
2023-02-23T08:44:23.120Z,10.91
2023-02-23T08:46:50.817Z,10.90
2023-02-23T08:49:18.267Z,10.95
2023-02-23T08:51:47.279Z,10.92
2023-02-23T08:54:16.147Z,10.81
2023-02-23T08:56:44.381Z,10.89
2023-02-23T08:59:13.482Z,10.92
2023-02-23T09:01:42.225Z,10.85
2023-02-23T09:04:09.747Z,10.89
2023-02-23T09:06:38.114Z,10.95
2023-02-23T09:09:06.974Z,11.01
2023-02-23T09:11:34.505Z,11.08
2023-02-23T09:14:02.013Z,10.97
2023-02-23T09:16:29.512Z,10.84
2023-02-23T09:19:01.397Z,10.85
2023-02-23T09:21:29.913Z,10.99
2023-02-23T09:23:58.514Z,11.06
2023-02-23T09:26:29.400Z,11.01
2023-02-23T09:28:58.825Z,10.82
2023-02-23T09:31:26.571Z,10.99
2023-02-23T09:33:55.075Z,11.05
2023-02-23T09:36:24.623Z,11.03
2023-02-23T09:38:55.289Z,11.03
2023-02-23T09:41:56.952Z,11.03
2023-02-23T09:44:37.908Z,10.97
2023-02-23T09:47:19.567Z,10.99
2023-02-23T09:49:49.983Z,10.98
2023-02-23T09:52:22.052Z,10.97
2023-02-23T09:54:49.782Z,11.00
2023-02-23T09:57:24.623Z,10.89
2023-02-23T09:59:53.056Z,10.95
2023-02-23T10:02:25.124Z,10.99
2023-02-23T10:04:57.683Z,11.08
2023-02-23T10:07:35.004Z,11.05
2023-02-23T10:10:16.725Z,11.04
2023-02-23T10:12:55.397Z,11.04
2023-02-23T10:15:33.393Z,11.12
2023-02-23T10:18:12.429Z,11.06
2023-02-23T10:20:48.537Z,11.07
2023-02-23T10:23:20.998Z,10.98
2023-02-23T10:25:53.114Z,10.95
2023-02-23T10:28:23.197Z,11.07
2023-02-23T10:30:51.664Z,11.08
2023-02-23T10:33:25.265Z,11.05
2023-02-23T10:36:12.518Z,10.95
2023-02-23T10:38:41.137Z,10.99
2023-02-23T10:41:14.653Z,10.97
2023-02-23T10:43:43.743Z,10.80
2023-02-23T10:46:18.548Z,10.98
2023-02-23T10:48:48.279Z,10.99
2023-02-23T10:51:21.152Z,10.88
2023-02-23T10:53:49.069Z,10.94
2023-02-23T10:56:19.512Z,11.05
2023-02-23T10:58:50.949Z,11.04
2023-02-23T11:01:36.188Z,11.00
2023-02-23T11:04:17.245Z,11.08
2023-02-23T11:06:44.822Z,11.21
2023-02-23T11:09:33.141Z,10.93
2023-02-23T11:12:21.532Z,10.89
2023-02-23T11:14:51.340Z,11.11
2023-02-23T11:17:29.389Z,11.13
2023-02-23T11:20:02.439Z,11.11
2023-02-23T11:22:33.821Z,11.12
2023-02-23T11:25:03.875Z,11.08
2023-02-23T11:27:31.476Z,11.17
2023-02-23T11:30:06.836Z,11.17
2023-02-23T11:32:38.607Z,11.10
2023-02-23T11:35:27.919Z,11.09
2023-02-23T11:37:56.474Z,10.94
2023-02-23T11:40:27.079Z,10.62
2023-02-23T11:42:57.090Z,10.79
2023-02-23T11:45:28.043Z,10.91
2023-02-23T11:47:59.394Z,10.97
2023-02-23T11:50:29.740Z,10.96
2023-02-23T11:53:04.321Z,10.96
2023-02-23T11:55:34.534Z,10.98
2023-02-23T11:58:13.282Z,10.96
2023-02-23T12:00:44.417Z,10.71
2023-02-23T12:03:24.158Z,10.55
2023-02-23T12:05:53.747Z,10.64
2023-02-23T12:08:38.479Z,10.73
2023-02-23T12:11:13.388Z,10.76
2023-02-23T12:13:47.387Z,10.73
2023-02-23T12:16:21.281Z,10.72
2023-02-23T12:18:59.798Z,10.46
2023-02-23T12:21:47.926Z,10.26
2023-02-23T12:24:24.224Z,10.42
2023-02-23T12:26:56.431Z,10.66
2023-02-23T12:29:32.586Z,10.84
2023-02-23T12:32:05.706Z,10.83
2023-02-23T12:34:41.084Z,10.91
2023-02-23T12:37:17.276Z,10.90
2023-02-23T12:39:47.557Z,10.67
2023-02-23T12:42:20.368Z,10.76
2023-02-23T12:44:52.505Z,10.57
2023-02-23T12:47:29.932Z,10.66
2023-02-23T12:50:07.088Z,10.68
2023-02-23T12:52:38.594Z,10.69
2023-02-23T12:55:11.205Z,10.72
2023-02-23T12:57:45.808Z,10.72
2023-02-23T13:00:31.124Z,10.73
2023-02-23T13:03:22.791Z,10.75
2023-02-23T13:05:54.342Z,10.56
2023-02-23T13:08:30.198Z,10.47
2023-02-23T13:11:07.663Z,10.60
2023-02-23T13:13:41.738Z,10.54
2023-02-23T13:16:16.703Z,10.68
2023-02-23T13:18:49.977Z,10.66
2023-02-23T13:21:26.012Z,10.68
2023-02-23T13:23:59.362Z,10.60
2023-02-23T13:26:34.135Z,10.70
2023-02-23T13:29:06.261Z,10.40
2023-02-23T13:31:37.878Z,10.47
2023-02-23T13:34:11.993Z,10.45
2023-02-23T13:36:42.007Z,10.07
2023-02-23T13:39:47.632Z,10.43
2023-02-23T13:42:28.382Z,10.59
2023-02-23T13:45:03.723Z,10.58
2023-02-23T13:47:41.764Z,10.58
2023-02-23T13:50:22.477Z,10.68
2023-02-23T13:52:50.764Z,10.68
2023-02-23T13:55:48.725Z,10.70
2023-02-23T13:58:21.067Z,10.59
2023-02-23T14:00:55.638Z,10.39
2023-02-23T14:03:28.122Z,10.45
2023-02-23T14:06:01.111Z,10.52
2023-02-23T14:08:33.596Z,10.59
2023-02-23T14:11:01.916Z,10.50
2023-02-23T14:13:32.730Z,10.31
2023-02-23T14:16:19.564Z,10.40
2023-02-23T14:18:57.850Z,10.43
2023-02-23T14:21:33.695Z,10.49
2023-02-23T14:24:14.797Z,10.48
2023-02-23T14:26:45.693Z,10.46
2023-02-23T14:29:26.546Z,10.46
2023-02-23T14:31:57.115Z,10.36
2023-02-23T14:34:43.153Z,10.47
2023-02-23T14:37:21.917Z,10.56
2023-02-23T14:39:51.001Z,10.48
2023-02-23T14:42:24.377Z,10.49
2023-02-23T14:44:53.988Z,10.45
2023-02-23T14:47:23.316Z,10.50
2023-02-23T14:49:55.690Z,10.51
2023-02-23T14:52:27.945Z,10.50
2023-02-23T14:55:08.823Z,10.52
2023-02-23T14:57:38.095Z,10.53
2023-02-23T15:00:13.516Z,10.54
2023-02-23T15:02:53.869Z,10.58
2023-02-23T15:05:25.178Z,10.56
2023-02-23T15:07:54.513Z,10.52
2023-02-23T15:10:27.158Z,10.56
2023-02-23T15:12:55.482Z,10.57
2023-02-23T15:15:25.546Z,10.49
2023-02-23T15:17:56.688Z,10.44
2023-02-23T15:20:32.399Z,10.32
2023-02-23T15:23:03.691Z,10.37
2023-02-23T15:25:36.866Z,10.43
2023-02-23T15:28:23.390Z,10.41
2023-02-23T15:30:52.272Z,10.42
2023-02-23T15:33:23.278Z,10.50
2023-02-23T15:35:54.616Z,10.45
2023-02-23T15:38:42.960Z,10.32
2023-02-23T15:41:19.100Z,10.38
2023-02-23T15:43:46.928Z,10.39
2023-02-23T15:46:23.975Z,10.41
2023-02-23T15:48:53.087Z,10.38
2023-02-23T15:51:31.812Z,10.43
2023-02-23T15:54:03.468Z,10.46
2023-02-23T15:56:31.605Z,10.29
2023-02-23T15:59:04.918Z,10.30
2023-02-23T16:01:33.440Z,10.21
2023-02-23T16:04:03.619Z,10.07
2023-02-23T16:06:36.808Z,10.14
2023-02-23T16:09:20.589Z,10.21
2023-02-23T16:11:52.112Z,10.24
2023-02-23T16:14:21.637Z,10.23
2023-02-23T16:16:58.438Z,10.01
2023-02-23T16:19:40.566Z,10.13
2023-02-23T16:22:19.582Z,10.13
2023-02-23T16:24:54.395Z,10.09
2023-02-23T16:27:22.334Z,10.16
2023-02-23T16:30:00.045Z,10.23
2023-02-23T16:32:35.589Z,10.21
2023-02-23T16:35:09.667Z,10.23
2023-02-23T16:37:58.476Z,10.23
2023-02-23T16:40:28.093Z,10.28
2023-02-23T16:42:59.237Z,10.26
2023-02-23T16:45:29.307Z,10.31
2023-02-23T16:48:01.955Z,10.23
2023-02-23T16:50:37.360Z,10.26
2023-02-23T16:53:06.606Z,10.28
2023-02-23T16:55:39.197Z,10.25
2023-02-23T16:58:12.075Z,10.23
2023-02-23T17:00:39.575Z,10.24
2023-02-23T17:03:11.601Z,10.22
2023-02-23T17:05:39.366Z,10.25
2023-02-23T17:08:06.978Z,10.20
2023-02-23T17:10:36.430Z,10.20
2023-02-23T17:13:05.938Z,10.15
2023-02-23T17:15:36.378Z,10.14
2023-02-23T17:18:04.415Z,10.11
2023-02-23T17:20:32.540Z,10.15
2023-02-23T17:23:03.003Z,10.12
2023-02-23T17:25:30.563Z,10.15
2023-02-23T17:28:00.992Z,10.09
2023-02-23T17:30:28.855Z,10.06
2023-02-23T17:32:58.307Z,10.12
2023-02-23T17:35:26.847Z,10.04
2023-02-23T17:37:54.568Z,10.06
2023-02-23T17:40:28.630Z,10.10
2023-02-23T17:42:57.064Z,10.03
2023-02-23T17:45:26.647Z,10.05
2023-02-23T17:47:54.080Z,10.01
2023-02-23T17:50:23.118Z,9.92
2023-02-23T17:52:51.978Z,9.94
2023-02-23T17:55:21.086Z,10.02
2023-02-23T17:57:48.838Z,9.83
2023-02-23T18:00:18.707Z,9.85
2023-02-23T18:02:47.717Z,9.83
2023-02-23T18:05:15.934Z,9.69
2023-02-23T18:07:45.468Z,9.78
2023-02-23T18:10:14.528Z,9.82
2023-02-23T18:12:42.109Z,9.81
2023-02-23T18:15:10.136Z,9.80
2023-02-23T18:17:37.603Z,9.89
2023-02-23T18:20:08.124Z,9.86
2023-02-23T18:22:35.578Z,9.89
2023-02-23T18:25:03.055Z,9.86
2023-02-23T18:27:30.550Z,9.75
2023-02-23T18:29:58.291Z,9.79
2023-02-23T18:32:25.903Z,9.76
2023-02-23T18:34:53.589Z,9.80
2023-02-23T18:37:25.058Z,9.79
2023-02-23T18:39:54.368Z,9.78
2023-02-23T18:42:22.282Z,9.81
2023-02-23T18:44:50.200Z,9.79
2023-02-23T18:47:18.010Z,9.82
2023-02-23T18:49:45.587Z,9.84
2023-02-23T18:52:13.444Z,9.88
2023-02-23T18:54:42.492Z,9.69
2023-02-23T18:57:10.057Z,9.81
2023-02-23T18:59:37.541Z,9.85
2023-02-23T19:02:05.277Z,9.78
2023-02-23T19:04:32.835Z,9.83
2023-02-23T19:07:00.378Z,9.90
2023-02-23T19:09:27.852Z,9.76
2023-02-23T19:11:56.672Z,9.78
2023-02-23T19:14:46.433Z,9.83
2023-02-23T19:17:11.613Z,9.82
2023-02-23T19:19:39.073Z,9.80
2023-02-23T19:22:06.550Z,9.84
2023-02-23T19:24:35.759Z,9.84
2023-02-23T19:27:05.820Z,9.87
2023-02-23T19:29:33.394Z,9.87
2023-02-23T19:32:00.991Z,9.85
2023-02-23T19:34:28.514Z,9.91
2023-02-23T19:36:55.946Z,9.93
2023-02-23T19:39:23.421Z,9.92
2023-02-23T19:41:50.898Z,9.90
2023-02-23T19:44:19.762Z,9.88
2023-02-23T19:46:47.252Z,9.88
2023-02-23T19:49:14.742Z,9.88
2023-02-23T19:51:42.211Z,9.89
2023-02-23T19:54:09.713Z,9.85
2023-02-23T19:56:37.952Z,9.83
2023-02-23T19:59:06.583Z,9.82
2023-02-23T20:01:36.013Z,9.81
2023-02-23T20:04:06.569Z,9.80
2023-02-23T20:06:39.303Z,9.78
2023-02-23T20:09:07.249Z,9.73
2023-02-23T20:11:34.754Z,9.68
2023-02-23T20:14:04.128Z,9.52
2023-02-23T20:16:31.861Z,9.62
2023-02-23T20:19:01.373Z,9.70
2023-02-23T20:21:32.156Z,9.66
2023-02-23T20:24:01.348Z,9.70
2023-02-23T20:26:30.773Z,9.59
2023-02-23T20:28:58.816Z,9.63
2023-02-23T20:31:29.885Z,9.67
2023-02-23T20:33:59.554Z,9.57
2023-02-23T20:36:28.438Z,9.59
2023-02-23T20:38:55.910Z,9.63
2023-02-23T20:41:23.746Z,9.66
2023-02-23T20:43:51.654Z,9.69
2023-02-23T20:46:19.722Z,9.66
2023-02-23T20:48:48.881Z,9.67
2023-02-23T20:51:19.751Z,9.70
2023-02-23T20:53:49.613Z,9.68
2023-02-23T20:56:19.537Z,9.71
2023-02-23T20:58:47.492Z,9.68
2023-02-23T21:01:16.143Z,9.63
2023-02-23T21:03:43.784Z,9.62
2023-02-23T21:06:11.282Z,9.64
2023-02-23T21:08:39.870Z,9.69
2023-02-23T21:11:09.294Z,9.71
2023-02-23T21:13:37.454Z,9.73
2023-02-23T21:16:05.293Z,9.74
2023-02-23T21:18:32.839Z,9.70
2023-02-23T21:21:09.418Z,9.73
2023-02-23T21:23:37.559Z,9.65
2023-02-23T21:26:14.094Z,9.70
2023-02-23T21:28:44.282Z,9.68
2023-02-23T21:31:14.161Z,9.58
2023-02-23T21:33:43.212Z,9.66
2023-02-23T21:36:12.540Z,9.60
2023-02-23T21:38:42.837Z,9.62
2023-02-23T21:41:11.278Z,9.69
2023-02-23T21:43:41.417Z,9.73
2023-02-23T21:46:14.001Z,9.76
2023-02-23T21:48:42.039Z,9.66
2023-02-23T21:51:12.250Z,9.67
2023-02-23T21:53:40.428Z,9.53
2023-02-23T21:56:11.508Z,9.29
2023-02-23T21:58:39.979Z,9.43
2023-02-23T22:01:13.496Z,9.47
2023-02-23T22:03:45.047Z,9.44
2023-02-23T22:06:13.223Z,9.24
2023-02-23T22:08:42.954Z,9.16
2023-02-23T22:11:17.434Z,9.22
2023-02-23T22:13:45.466Z,9.11
2023-02-23T22:16:15.389Z,8.85
2023-02-23T22:18:43.495Z,8.90
2023-02-23T22:21:12.660Z,8.74
2023-02-23T22:23:41.486Z,8.76
2023-02-23T22:26:09.363Z,8.82
2023-02-23T22:28:37.330Z,8.91
2023-02-23T22:31:08.084Z,8.92
2023-02-23T22:33:37.855Z,8.96
2023-02-23T22:36:08.010Z,8.89
2023-02-23T22:38:35.896Z,8.82
2023-02-23T22:41:05.308Z,8.82
2023-02-23T22:43:34.163Z,8.46
2023-02-23T22:46:01.887Z,8.62
2023-02-23T22:48:29.597Z,8.66
2023-02-23T22:50:59.546Z,8.73
2023-02-23T22:53:27.634Z,8.68
2023-02-23T22:55:56.660Z,8.65
2023-02-23T22:58:26.179Z,8.73
2023-02-23T23:01:04.023Z,8.73
2023-02-23T23:03:35.951Z,8.79
2023-02-23T23:06:08.408Z,8.81
2023-02-23T23:08:38.676Z,8.76
2023-02-23T23:11:09.552Z,8.73
2023-02-23T23:13:40.862Z,8.73
2023-02-23T23:16:16.853Z,8.68
2023-02-23T23:18:55.093Z,8.63
2023-02-23T23:21:27.936Z,8.61
2023-02-23T23:23:57.172Z,8.55
2023-02-23T23:26:26.309Z,8.55
2023-02-23T23:28:55.734Z,8.45
2023-02-23T23:31:27.964Z,8.30
2023-02-23T23:33:59.885Z,8.31
2023-02-23T23:36:31.907Z,8.36
2023-02-23T23:39:00.024Z,8.48
2023-02-23T23:41:29.310Z,8.43
2023-02-23T23:43:59.024Z,8.54
2023-02-23T23:46:28.267Z,8.46
2023-02-23T23:48:58.468Z,8.46
2023-02-23T23:51:28.398Z,8.47
2023-02-23T23:53:59.330Z,8.12
2023-02-23T23:56:30.415Z,8.16
2023-02-23T23:58:59.211Z,8.18
